Schefield, North Dakota
Current Conditions -  °F | °C
As of 9:56 AM on Friday 19 Dec 2014 (Local Time) from KDIK Reporting Station
Clear Clear  
Wind Chill: 28°   Ceiling: Unl
Heat Index: 35°   Visibility: 10mi
Dew Point: 26°   Wind: 9mph
Humidity: 70%   Direction: 250°WSW
Pressure: 29.91"   Gusts: NA
Location:  46.4704°N, 102.78°W
Report Text: KDIK 191656Z AUTO 25008KT 10SM CLR 02/M03 A2991 RMK AO2 SLP155 T00171033
Loading
Personal Weather Stations






























Interactive Weather Map New forecast layout! Learn more

10-Day Weather Forecast

Advertisements
Track Severe Weather on mobile